Terminal Aerodrome Forecast
Issued by NWS

Home | Current Version | Previous Version | Text Only | Print | Product List | Glossary On
Versions: 1 2 3 4 5 6 7 8 9 10 11 12 13 14 15 16 17 18 19 20 21 22 23 24 25 26 27 28 29 30 31 32 33 34 35 36 37 38 39 40
000
FTUS41 KBOX 281123
TAFACK
TAF
KACK 281123Z 2812/2912 04004KT 1/2SM DZ FG OVC002
     FM281600 07006KT 1SM BR VCSH OVC002
     FM282000 08006KT 1/2SM -RA FG OVC003
     FM290000 07007KT 1SM -RA BR OVC005
     FM290700 02010KT 2SM -RA BR OVC003
     FM291000 01010G19KT 5SM BR OVC003=

USA.gov is the U.S. government's official web portal to all federal, state and local government web resources and services.